createdAt,value
2023-05-01T00:02:41.721Z,4.00
2023-05-01T00:05:44.457Z,4.22
2023-05-01T00:08:46.272Z,3.60
2023-05-01T00:11:48.271Z,3.80
2023-05-01T00:14:53.054Z,3.35
2023-05-01T00:17:55.207Z,3.17
2023-05-01T00:20:57.357Z,3.25
2023-05-01T00:23:59.194Z,3.35
2023-05-01T00:27:03.951Z,3.90
2023-05-01T00:30:07.554Z,3.63
2023-05-01T00:33:09.384Z,3.42
2023-05-01T00:36:11.466Z,3.22
2023-05-01T00:39:13.221Z,2.60
2023-05-01T00:42:15.057Z,3.10
2023-05-01T00:45:16.881Z,3.17
2023-05-01T00:48:19.033Z,2.85
2023-05-01T00:51:22.378Z,3.00
2023-05-01T00:54:27.790Z,3.13
2023-05-01T00:57:31.722Z,3.00
2023-05-01T01:00:33.873Z,2.83
2023-05-01T01:03:35.895Z,2.72
2023-05-01T01:07:04.008Z,2.83
2023-05-01T01:10:23.549Z,2.80
2023-05-01T01:13:37.161Z,2.72
2023-05-01T01:16:49.003Z,2.90
2023-05-01T01:20:16.094Z,2.60
2023-05-01T01:23:42.483Z,2.58
2023-05-01T01:27:09.113Z,2.45
2023-05-01T01:30:42.241Z,2.60
2023-05-01T01:33:54.624Z,2.60
2023-05-01T01:37:03.589Z,2.42
2023-05-01T01:40:15.712Z,2.60
2023-05-01T01:43:20.430Z,2.28
2023-05-01T01:46:24.384Z,2.72
2023-05-01T01:49:27.947Z,2.65
2023-05-01T01:52:32.957Z,2.55
2023-05-01T01:55:38.009Z,2.33
2023-05-01T01:58:41.944Z,2.55
2023-05-01T02:01:44.804Z,2.78
2023-05-01T02:04:49.534Z,2.40
2023-05-01T02:07:52.872Z,2.28
2023-05-01T02:11:01.771Z,2.50
2023-05-01T02:14:06.195Z,2.33
2023-05-01T02:17:09.784Z,2.40
2023-05-01T02:20:15.826Z,2.08
2023-05-01T02:23:18.387Z,2.33
2023-05-01T02:26:25.754Z,2.53
2023-05-01T02:29:29.670Z,2.28
2023-05-01T02:37:11.133Z,2.38
2023-05-01T02:40:17.081Z,2.60
2023-05-01T02:43:21.069Z,2.40
2023-05-01T02:46:26.121Z,2.25
2023-05-01T02:49:30.179Z,2.53
2023-05-01T02:52:33.384Z,2.20
2023-05-01T02:56:03.757Z,2.15
2023-05-01T02:59:05.747Z,2.67
2023-05-01T03:02:07.719Z,2.50
2023-05-01T03:05:09.892Z,2.50
2023-05-01T03:08:12.876Z,2.30
2023-05-01T03:11:15.972Z,2.75
2023-05-01T03:14:17.754Z,2.92
2023-05-01T03:17:19.854Z,3.03
2023-05-01T03:20:21.718Z,2.78
2023-05-01T03:23:24.068Z,2.90
2023-05-01T03:26:26.513Z,2.60
2023-05-01T03:29:29.364Z,2.65
2023-05-01T03:32:31.255Z,2.80
2023-05-01T03:35:33.323Z,2.63
2023-05-01T03:38:35.419Z,3.03
2023-05-01T03:41:50.140Z,2.78
2023-05-01T03:45:02.598Z,3.22
2023-05-01T03:48:06.328Z,3.08
2023-05-01T03:51:08.544Z,2.67
2023-05-01T03:54:11.768Z,3.30
2023-05-01T03:57:34.077Z,2.72
2023-05-01T04:00:37.843Z,2.58
2023-05-01T04:03:41.460Z,2.53
2023-05-01T04:06:43.346Z,2.50
2023-05-01T04:09:45.344Z,2.78
2023-05-01T04:12:48.078Z,2.80
2023-05-01T04:15:50.186Z,2.78
2023-05-01T04:18:53.070Z,2.83
2023-05-01T04:21:55.276Z,2.88
2023-05-01T04:24:57.420Z,2.70
2023-05-01T04:27:59.402Z,2.42
2023-05-01T04:31:01.441Z,2.75
2023-05-01T04:34:03.375Z,2.75
2023-05-01T04:37:07.815Z,2.80
2023-05-01T04:40:11.659Z,2.40
2023-05-01T04:43:14.597Z,2.92
2023-05-01T04:46:17.254Z,3.20
2023-05-01T04:49:19.255Z,2.35
2023-05-01T04:52:22.171Z,2.33
2023-05-01T04:55:30.852Z,2.22
2023-05-01T04:58:44.091Z,2.20
2023-05-01T05:01:50.857Z,2.58
2023-05-01T05:04:57.712Z,2.40
2023-05-01T05:08:01.530Z,2.33
2023-05-01T05:11:11.525Z,2.03
2023-05-01T05:14:22.080Z,2.38
2023-05-01T05:17:24.041Z,2.33
2023-05-01T05:20:26.203Z,2.50
2023-05-01T05:23:30.984Z,2.35
2023-05-01T05:26:32.782Z,2.35
2023-05-01T05:29:37.767Z,2.25
2023-05-01T05:32:40.911Z,3.90
2023-05-01T05:35:44.516Z,2.85
2023-05-01T05:38:49.391Z,3.00
2023-05-01T05:41:54.023Z,2.58
2023-05-01T05:44:56.036Z,3.40
2023-05-01T05:48:00.979Z,2.95
2023-05-01T05:51:04.489Z,2.35
2023-05-01T05:54:06.466Z,3.05
2023-05-01T05:57:11.172Z,2.67
2023-05-01T06:00:19.677Z,2.50
2023-05-01T06:03:25.258Z,2.70
2023-05-01T06:06:32.237Z,2.92
2023-05-01T06:09:34.138Z,2.42
2023-05-01T06:12:38.334Z,2.90
2023-05-01T06:15:47.403Z,2.65
2023-05-01T06:18:49.893Z,2.70
2023-05-01T06:21:51.717Z,2.50
2023-05-01T06:24:54.896Z,2.42
2023-05-01T06:27:57.628Z,2.50
2023-05-01T06:30:59.709Z,2.28
2023-05-01T06:34:02.151Z,2.53
2023-05-01T06:37:10.120Z,3.05
2023-05-01T06:40:12.190Z,2.45
2023-05-01T06:43:14.985Z,2.60
2023-05-01T06:46:16.977Z,2.58
2023-05-01T06:49:18.794Z,2.75
2023-05-01T06:52:22.523Z,2.10
2023-05-01T06:55:24.348Z,2.00
2023-05-01T06:58:28.082Z,1.90
2023-05-01T07:01:32.145Z,2.03
2023-05-01T07:04:35.164Z,2.22
2023-05-01T07:07:38.945Z,1.67
2023-05-01T07:10:44.469Z,1.87
2023-05-01T07:13:46.448Z,1.90
2023-05-01T07:16:48.390Z,1.67
2023-05-01T07:19:50.640Z,1.50
2023-05-01T07:22:52.506Z,1.95
2023-05-01T07:25:54.957Z,1.60
2023-05-01T07:28:56.769Z,1.60
2023-05-01T07:31:59.364Z,1.90
2023-05-01T07:35:01.202Z,1.52
2023-05-01T07:38:02.990Z,1.65
2023-05-01T07:41:04.948Z,1.63
2023-05-01T07:44:06.824Z,1.75
2023-05-01T07:47:09.093Z,1.58
2023-05-01T07:50:12.256Z,1.50
2023-05-01T07:53:14.048Z,1.30
2023-05-01T07:56:17.036Z,1.35
2023-05-01T07:59:19.933Z,1.60
2023-05-01T08:02:22.250Z,2.35
2023-05-01T08:05:24.188Z,1.50
2023-05-01T08:08:26.251Z,1.58
2023-05-01T08:11:29.472Z,1.50
2023-05-01T08:14:31.331Z,1.40
2023-05-01T08:17:33.305Z,1.27
2023-05-01T08:20:38.569Z,1.52
2023-05-01T08:23:40.457Z,1.25
2023-05-01T08:26:42.402Z,1.45
2023-05-01T08:29:44.573Z,1.45
2023-05-01T08:32:46.470Z,1.70
2023-05-01T08:35:49.472Z,1.30
2023-05-01T08:38:51.250Z,1.73
2023-05-01T08:41:53.141Z,1.60
2023-05-01T08:44:59.449Z,1.30
2023-05-01T08:48:03.165Z,1.67
2023-05-01T08:51:06.248Z,1.50
2023-05-01T08:54:11.903Z,1.83
2023-05-01T08:57:13.853Z,1.80
2023-05-01T09:00:20.844Z,1.30
2023-05-01T09:03:23.093Z,1.70
2023-05-01T09:06:28.571Z,2.03
2023-05-01T09:09:34.253Z,1.45
2023-05-01T09:12:37.250Z,1.30
2023-05-01T09:15:39.191Z,1.50
2023-05-01T09:18:41.745Z,1.58
2023-05-01T09:21:43.614Z,1.60
2023-05-01T09:24:45.707Z,1.42
2023-05-01T09:27:47.903Z,1.50
2023-05-01T09:30:49.667Z,1.42
2023-05-01T09:33:54.445Z,1.60
2023-05-01T09:36:56.252Z,1.27
2023-05-01T09:40:11.618Z,1.50
2023-05-01T09:43:13.454Z,1.38
2023-05-01T09:46:15.519Z,1.58
2023-05-01T09:49:18.700Z,1.40
2023-05-01T09:52:20.710Z,1.60
2023-05-01T09:55:25.664Z,1.60
2023-05-01T09:58:28.417Z,1.42
2023-05-01T10:01:41.218Z,1.40
2023-05-01T10:04:43.531Z,1.58
2023-05-01T10:08:01.117Z,1.98
2023-05-01T10:11:05.204Z,1.48
2023-05-01T10:14:11.096Z,1.50
2023-05-01T10:17:19.981Z,1.50
2023-05-01T10:20:22.180Z,1.80
2023-05-01T10:23:25.483Z,1.65
2023-05-01T10:26:27.666Z,1.40
2023-05-01T10:29:31.284Z,1.80
2023-05-01T10:32:34.112Z,1.55
2023-05-01T10:35:39.228Z,1.33
2023-05-01T10:38:45.709Z,1.90
2023-05-01T10:42:08.678Z,1.80
2023-05-01T10:45:30.088Z,1.50
2023-05-01T10:48:37.641Z,1.40
2023-05-01T10:52:03.847Z,1.38
2023-05-01T10:55:34.512Z,1.90
2023-05-01T10:58:39.099Z,1.80
2023-05-01T11:01:43.234Z,1.90
2023-05-01T11:04:48.538Z,1.80
2023-05-01T11:08:28.809Z,1.90
2023-05-01T11:11:30.536Z,1.92
2023-05-01T11:15:11.374Z,1.90
2023-05-01T11:18:13.461Z,2.33
2023-05-01T11:21:17.057Z,2.53
2023-05-01T11:24:19.805Z,2.50
2023-05-01T11:27:22.471Z,1.90
2023-05-01T11:30:25.290Z,1.98
2023-05-01T11:33:27.691Z,3.97
2023-05-01T11:36:30.848Z,2.85
2023-05-01T11:39:32.665Z,2.30
2023-05-01T11:42:34.476Z,2.38
2023-05-01T11:45:37.612Z,2.20
2023-05-01T11:48:40.107Z,2.30
2023-05-01T11:51:41.893Z,2.10
2023-05-01T11:54:49.911Z,2.10
2023-05-01T11:57:54.803Z,2.40
2023-05-01T12:00:56.645Z,2.78
2023-05-01T12:03:59.100Z,2.45
2023-05-01T12:07:01.291Z,2.67
2023-05-01T12:10:04.614Z,2.53
2023-05-01T12:13:08.276Z,2.72
2023-05-01T12:16:11.617Z,2.25
2023-05-01T12:19:15.031Z,2.45
2023-05-01T12:22:17.796Z,2.60
2023-05-01T12:25:19.667Z,3.08
2023-05-01T12:28:21.629Z,2.25
2023-05-01T12:31:24.699Z,2.45
2023-05-01T12:34:32.227Z,2.15
2023-05-01T12:40:35.850Z,2.30
2023-05-01T12:43:38.336Z,2.38
2023-05-01T12:46:40.275Z,2.30
2023-05-01T12:49:43.700Z,2.53
2023-05-01T12:52:45.873Z,2.50
2023-05-01T12:55:50.658Z,1.92
2023-05-01T12:58:53.875Z,2.30
2023-05-01T13:02:04.914Z,2.00
2023-05-01T13:05:12.120Z,1.92
2023-05-01T13:08:13.987Z,1.92
2023-05-01T13:11:17.567Z,2.67
2023-05-01T13:14:19.399Z,3.38
2023-05-01T13:17:32.668Z,2.63
2023-05-01T13:20:36.373Z,2.30
2023-05-01T13:23:40.300Z,2.60
2023-05-01T13:26:43.172Z,2.40
2023-05-01T13:29:57.736Z,2.10
2023-05-01T13:33:00.599Z,1.50
2023-05-01T13:36:08.631Z,1.63
2023-05-01T13:39:21.394Z,1.38
2023-05-01T13:42:25.098Z,1.27
2023-05-01T13:45:26.953Z,1.25
2023-05-01T13:48:31.536Z,2.00
2023-05-01T13:51:34.532Z,1.50
2023-05-01T13:54:41.795Z,1.60
2023-05-01T13:57:43.698Z,1.40
2023-05-01T14:00:45.490Z,1.73
2023-05-01T14:03:48.162Z,1.50
2023-05-01T14:06:50.660Z,1.98
2023-05-01T14:09:57.994Z,2.00
2023-05-01T14:13:00.299Z,2.10
2023-05-01T14:16:10.475Z,1.95
2023-05-01T14:19:16.195Z,1.60
2023-05-01T14:22:17.999Z,1.98
2023-05-01T14:25:28.999Z,1.90
2023-05-01T14:28:31.578Z,1.30
2023-05-01T14:31:33.886Z,1.60
2023-05-01T14:34:35.674Z,1.80
2023-05-01T14:37:39.137Z,1.60
2023-05-01T14:40:43.212Z,1.63
2023-05-01T14:43:45.364Z,1.38
2023-05-01T14:46:52.247Z,1.30
2023-05-01T14:49:54.523Z,1.48
2023-05-01T14:52:58.623Z,1.40
2023-05-01T14:56:00.513Z,1.30
2023-05-01T14:59:02.391Z,1.13
2023-05-01T15:02:04.190Z,1.48
2023-05-01T15:05:06.477Z,1.40
2023-05-01T15:08:09.374Z,1.30
2023-05-01T15:11:14.097Z,1.45
2023-05-01T15:14:15.886Z,1.85
2023-05-01T15:17:17.646Z,1.30
2023-05-01T15:20:19.469Z,1.30
2023-05-01T15:23:21.458Z,2.05
2023-05-01T15:26:23.252Z,1.50
2023-05-01T15:29:25.144Z,1.58
2023-05-01T15:32:26.973Z,1.92
2023-05-01T15:35:28.767Z,1.45
2023-05-01T15:38:30.569Z,1.70
2023-05-01T15:41:33.027Z,2.10
2023-05-01T15:44:34.897Z,2.15
2023-05-01T15:47:36.903Z,2.30
2023-05-01T15:50:38.802Z,2.67
2023-05-01T15:53:40.837Z,2.20
2023-05-01T15:56:42.552Z,1.85
2023-05-01T15:59:45.090Z,1.90
2023-05-01T16:02:47.215Z,1.83
2023-05-01T16:05:49.446Z,2.13
2023-05-01T16:08:51.524Z,2.10
2023-05-01T16:11:53.318Z,1.70
2023-05-01T16:14:55.127Z,1.60
2023-05-01T16:17:57.087Z,1.58
2023-05-01T16:20:59.982Z,1.67
2023-05-01T16:24:02.022Z,1.50
2023-05-01T16:27:03.895Z,1.38
2023-05-01T16:30:06.477Z,1.60
2023-05-01T16:33:18.843Z,1.80
2023-05-01T16:36:21.499Z,1.73
2023-05-01T16:39:23.343Z,1.42
2023-05-01T16:42:25.340Z,1.60
2023-05-01T16:45:27.892Z,1.70
2023-05-01T16:48:30.882Z,1.42
2023-05-01T16:51:32.869Z,1.52
2023-05-01T16:54:37.432Z,1.60
2023-05-01T16:57:39.273Z,1.40
2023-05-01T17:00:41.377Z,1.88
2023-05-01T17:03:43.163Z,1.75
2023-05-01T17:06:44.984Z,1.60
2023-05-01T17:09:50.089Z,2.17
2023-05-01T17:12:54.317Z,1.85
2023-05-01T17:15:58.501Z,4.53
2023-05-01T17:19:01.534Z,6.85
2023-05-01T17:22:03.502Z,11.27
2023-05-01T17:25:06.199Z,7.35
2023-05-01T17:28:07.929Z,4.85
2023-05-01T17:31:09.850Z,3.33
2023-05-01T17:34:12.588Z,3.97
2023-05-01T17:37:15.414Z,3.00
2023-05-01T17:40:17.315Z,2.80
2023-05-01T17:43:19.168Z,2.53
2023-05-01T17:46:21.031Z,3.28
2023-05-01T17:49:23.670Z,7.50
2023-05-01T17:52:25.645Z,9.73
2023-05-01T17:55:28.061Z,7.85
2023-05-01T17:58:29.841Z,4.30
2023-05-01T18:01:31.755Z,3.70
2023-05-01T18:04:36.087Z,3.08
2023-05-01T18:07:38.582Z,3.72
2023-05-01T18:10:40.347Z,3.42
2023-05-01T18:13:43.831Z,2.92
2023-05-01T18:16:47.224Z,3.42
2023-05-01T18:19:52.181Z,3.10
2023-05-01T18:22:54.560Z,2.90
2023-05-01T18:25:56.597Z,3.90
2023-05-01T18:28:58.848Z,3.22
2023-05-01T18:32:00.873Z,3.17
2023-05-01T18:35:02.945Z,3.40
2023-05-01T18:38:05.857Z,3.30
2023-05-01T18:41:07.693Z,3.47
2023-05-01T18:44:09.930Z,4.03
2023-05-01T18:47:11.937Z,4.60
2023-05-01T18:50:13.888Z,4.15
2023-05-01T18:53:15.862Z,4.80
2023-05-01T18:56:17.664Z,4.53
2023-05-01T18:59:22.060Z,4.53
2023-05-01T19:02:23.918Z,4.35
2023-05-01T19:05:26.023Z,4.28
2023-05-01T19:08:27.841Z,3.90
2023-05-01T19:11:32.362Z,3.70
2023-05-01T19:14:34.132Z,3.50
2023-05-01T19:17:36.018Z,3.47
2023-05-01T19:20:38.944Z,2.90
2023-05-01T19:23:43.684Z,3.05
2023-05-01T19:26:45.539Z,3.20
2023-05-01T19:29:47.419Z,3.10
2023-05-01T19:32:49.365Z,3.50
2023-05-01T19:35:51.227Z,3.10
2023-05-01T19:38:53.170Z,3.75
2023-05-01T19:41:57.679Z,3.08
2023-05-01T19:45:04.368Z,2.72
2023-05-01T19:52:59.908Z,3.00
2023-05-01T19:56:19.212Z,3.25
2023-05-01T19:59:21.135Z,2.67
2023-05-01T20:02:23.250Z,2.80
2023-05-01T20:05:28.196Z,3.78
2023-05-01T20:08:30.263Z,3.00
2023-05-01T20:11:34.573Z,3.38
2023-05-01T20:14:36.313Z,3.13
2023-05-01T20:17:42.401Z,3.20
2023-05-01T20:20:44.307Z,3.17
2023-05-01T20:23:46.281Z,3.42
2023-05-01T20:26:48.069Z,3.15
2023-05-01T20:29:50.883Z,3.20
2023-05-01T20:32:52.784Z,3.25
2023-05-01T20:35:58.006Z,3.13
2023-05-01T20:39:00.780Z,3.08
2023-05-01T20:42:02.560Z,3.22
2023-05-01T20:45:05.220Z,3.17
2023-05-01T20:48:07.605Z,3.88
2023-05-01T20:51:10.401Z,4.20
2023-05-01T20:54:12.344Z,3.97
2023-05-01T20:57:18.652Z,3.65
2023-05-01T21:00:20.994Z,3.75
2023-05-01T21:03:24.625Z,4.10
2023-05-01T21:06:27.373Z,4.10
2023-05-01T21:09:32.940Z,3.80
2023-05-01T21:12:34.886Z,3.70
2023-05-01T21:15:44.616Z,3.65
2023-05-01T21:18:46.794Z,4.10
2023-05-01T21:21:48.827Z,3.88
2023-05-01T21:25:00.426Z,4.18
2023-05-01T21:28:06.043Z,3.70
2023-05-01T21:31:11.479Z,4.72
2023-05-01T21:34:17.625Z,4.45
2023-05-01T21:37:20.194Z,4.18
2023-05-01T21:40:22.022Z,4.32
2023-05-01T21:43:23.919Z,4.88
2023-05-01T21:46:26.288Z,4.43
2023-05-01T21:49:28.767Z,4.43
2023-05-01T21:52:31.155Z,4.70
2023-05-01T21:55:33.666Z,4.40
2023-05-01T21:58:36.648Z,5.07
2023-05-01T22:01:43.388Z,4.68
2023-05-01T22:04:45.390Z,4.30
2023-05-01T22:07:47.432Z,4.38
2023-05-01T22:10:49.707Z,4.43
2023-05-01T22:13:52.065Z,4.97
2023-05-01T22:16:53.905Z,4.65
2023-05-01T22:19:56.133Z,4.63
2023-05-01T22:22:57.916Z,5.28
2023-05-01T22:26:00.512Z,5.10
2023-05-01T22:29:04.045Z,4.60
2023-05-01T22:32:06.769Z,5.13
2023-05-01T22:35:09.479Z,5.13
2023-05-01T22:38:11.274Z,5.20
2023-05-01T22:41:13.266Z,5.13
2023-05-01T22:44:15.049Z,4.80
2023-05-01T22:47:17.570Z,4.75
2023-05-01T22:50:19.554Z,5.15
2023-05-01T22:53:21.345Z,5.10
2023-05-01T22:56:23.268Z,4.80
2023-05-01T22:59:26.070Z,4.90
2023-05-01T23:02:28.186Z,4.90
2023-05-01T23:05:30.025Z,4.55
2023-05-01T23:08:35.959Z,4.82
2023-05-01T23:11:40.400Z,4.35
2023-05-01T23:14:46.338Z,4.47
2023-05-01T23:17:48.106Z,4.78
2023-05-01T23:20:51.653Z,4.50
2023-05-01T23:23:53.546Z,4.30
2023-05-01T23:26:55.337Z,4.13
2023-05-01T23:29:58.692Z,4.43
2023-05-01T23:33:01.087Z,3.95
2023-05-01T23:36:03.279Z,4.40
2023-05-01T23:39:05.101Z,4.45
2023-05-01T23:42:07.108Z,4.57
2023-05-01T23:45:09.882Z,4.45
2023-05-01T23:48:11.874Z,5.28
2023-05-01T23:51:14.518Z,4.80
2023-05-01T23:54:16.728Z,4.60
2023-05-01T23:57:18.667Z,4.43
